This is the latest recevied weather packets stored in our database for station/object K1ABC. If no packets are shown the sender has not sent any weather packets the latest 10 day(s).
| Time | Temp. | Humidity | Pressure | Rain* | Wind** | Luminosity | Snow |
|---|---|---|---|---|---|---|---|
| 1777992152 | 22.78° C | 50% | 1008.5 hPa | 0 mm | - | - | - |
| 1777991329 | 21.67° C | 51% | 1008.5 hPa | 0 mm | - | - | - |
| 1777990508 | 21.11° C | 53% | 1008.6 hPa | 0 mm | - | - | - |
| 1777989605 | 20.56° C | 53% | 1008.5 hPa | 0 mm | - | - | - |
| 1777989162 | 20.56° C | 54% | 1008.5 hPa | 0 mm | - | - | - |
| 1777986810 | 20° C | 55% | 1008.6 hPa | 0 mm | - | - | - |
| 1777986239 | 19.44° C | 56% | 1008.6 hPa | 0 mm | - | - | - |
| 1777985789 | 18.89° C | 57% | 1008.6 hPa | 0 mm | - | - | - |
| 1777985470 | 18.89° C | 57% | 1008.8 hPa | 0 mm | - | - | - |
| 1777983667 | 18.33° C | 59% | 1008.8 hPa | 0 mm | - | - | - |
| 1777983089 | 17.78° C | 59% | 1008.4 hPa | 0 mm | - | - | - |
| 1777979255 | 14.44° C | 66% | 1008.5 hPa | 0 mm | - | - | - |
| 1777978311 | 13.33° C | 69% | 1008.6 hPa | 0 mm | - | - | - |
| 1777977612 | 12.78° C | 69% | 1008.7 hPa | 0 mm | - | - | - |
| 1777976298 | 12.78° C | 68% | 1008.6 hPa | 0 mm | - | - | - |
| 1777976095 | 12.78° C | 69% | 1008.8 hPa | 0 mm | - | - | - |
| 1777975896 | 12.78° C | 69% | 1008.7 hPa | 0 mm | - | - | - |
| 1777975448 | 12.22° C | 69% | 1008.6 hPa | 0 mm | - | - | - |
| 1777974615 | 12.22° C | 69% | 1008.6 hPa | 0 mm | - | - | - |
| 1777972175 | 12.78° C | 67% | 1008.6 hPa | 0 mm | - | - | - |
| 1777971101 | 12.22° C | 68% | 1008.8 hPa | 0 mm | - | - | - |
| 1777970021 | 12.22° C | 68% | 1008.9 hPa | 0 mm | - | - | - |
| 1777969698 | 12.22° C | 68% | 1008.9 hPa | 0 mm | - | - | - |
| 1777968994 | 12.78° C | 67% | 1009 hPa | 0 mm | - | - | - |
| 1777968037 | 12.78° C | 66% | 1009.1 hPa | 0 mm | - | - | - |
* Rain latest hour (hover to see other rain measurements)
** Current wind speed in m/s (hover to see current wind gust speed)